sensor_id;sensor_type;location;lat;lon;timestamp;temperature;humidity
46676;DHT22;32412;51.478;5.694;2024-02-26T00:02:23;6.60;99.90
46676;DHT22;32412;51.478;5.694;2024-02-26T00:04:49;6.60;99.90
46676;DHT22;32412;51.478;5.694;2024-02-26T00:07:15;6.60;99.90
46676;DHT22;32412;51.478;5.694;2024-02-26T00:09:41;6.60;99.90
46676;DHT22;32412;51.478;5.694;2024-02-26T00:12:07;6.60;99.90
46676;DHT22;32412;51.478;5.694;2024-02-26T00:14:33;6.60;99.90
46676;DHT22;32412;51.478;5.694;2024-02-26T00:17:00;6.60;99.90
46676;DHT22;32412;51.478;5.694;2024-02-26T00:19:25;6.60;99.90
46676;DHT22;32412;51.478;5.694;2024-02-26T00:21:51;6.60;99.90
46676;DHT22;32412;51.478;5.694;2024-02-26T00:24:19;6.60;99.90
46676;DHT22;32412;51.478;5.694;2024-02-26T00:26:44;6.50;99.90
46676;DHT22;32412;51.478;5.694;2024-02-26T00:29:10;6.50;99.90
46676;DHT22;32412;51.478;5.694;2024-02-26T00:31:36;6.50;99.90
46676;DHT22;32412;51.478;5.694;2024-02-26T00:34:03;6.40;99.90
46676;DHT22;32412;51.478;5.694;2024-02-26T00:36:28;6.40;99.90
46676;DHT22;32412;51.478;5.694;2024-02-26T00:38:54;6.40;99.90
46676;DHT22;32412;51.478;5.694;2024-02-26T00:41:20;6.50;99.90
46676;DHT22;32412;51.478;5.694;2024-02-26T00:43:47;6.50;99.90
46676;DHT22;32412;51.478;5.694;2024-02-26T00:46:12;6.40;99.90
46676;DHT22;32412;51.478;5.694;2024-02-26T00:48:38;6.50;99.90
46676;DHT22;32412;51.478;5.694;2024-02-26T00:51:04;6.50;99.90
46676;DHT22;32412;51.478;5.694;2024-02-26T00:53:33;6.40;99.90
46676;DHT22;32412;51.478;5.694;2024-02-26T00:55:59;6.40;99.90
46676;DHT22;32412;51.478;5.694;2024-02-26T00:58:26;6.40;99.90
46676;DHT22;32412;51.478;5.694;2024-02-26T01:00:52;6.50;99.90
46676;DHT22;32412;51.478;5.694;2024-02-26T01:03:18;6.50;99.90
46676;DHT22;32412;51.478;5.694;2024-02-26T01:05:44;6.40;99.90
46676;DHT22;32412;51.478;5.694;2024-02-26T01:08:09;6.40;99.90
46676;DHT22;32412;51.478;5.694;2024-02-26T01:10:35;6.40;99.90
46676;DHT22;32412;51.478;5.694;2024-02-26T01:13:01;6.30;99.90
46676;DHT22;32412;51.478;5.694;2024-02-26T01:15:27;6.30;99.90
46676;DHT22;32412;51.478;5.694;2024-02-26T01:17:53;6.30;99.90
46676;DHT22;32412;51.478;5.694;2024-02-26T01:20:19;6.30;99.90
46676;DHT22;32412;51.478;5.694;2024-02-26T01:22:45;6.30;99.90
46676;DHT22;32412;51.478;5.694;2024-02-26T01:25:10;6.30;99.90
46676;DHT22;32412;51.478;5.694;2024-02-26T01:27:37;6.20;99.90
46676;DHT22;32412;51.478;5.694;2024-02-26T01:30:03;6.20;99.90
46676;DHT22;32412;51.478;5.694;2024-02-26T01:32:30;6.20;99.90
46676;DHT22;32412;51.478;5.694;2024-02-26T01:34:56;6.20;99.90
46676;DHT22;32412;51.478;5.694;2024-02-26T01:37:22;6.20;99.90
46676;DHT22;32412;51.478;5.694;2024-02-26T01:39:47;6.10;99.90
46676;DHT22;32412;51.478;5.694;2024-02-26T01:42:13;6.10;99.90
46676;DHT22;32412;51.478;5.694;2024-02-26T01:44:39;6.10;99.90
46676;DHT22;32412;51.478;5.694;2024-02-26T01:47:11;6.00;99.90
46676;DHT22;32412;51.478;5.694;2024-02-26T01:49:37;6.00;99.90
46676;DHT22;32412;51.478;5.694;2024-02-26T01:52:06;6.00;99.90
46676;DHT22;32412;51.478;5.694;2024-02-26T01:54:34;6.00;99.90
46676;DHT22;32412;51.478;5.694;2024-02-26T01:57:02;6.00;99.90
46676;DHT22;32412;51.478;5.694;2024-02-26T01:59:28;6.00;99.90
46676;DHT22;32412;51.478;5.694;2024-02-26T02:01:57;6.00;99.90
46676;DHT22;32412;51.478;5.694;2024-02-26T02:04:23;6.00;99.90
46676;DHT22;32412;51.478;5.694;2024-02-26T02:06:50;6.00;99.90
46676;DHT22;32412;51.478;5.694;2024-02-26T02:09:18;5.90;99.90
46676;DHT22;32412;51.478;5.694;2024-02-26T02:11:43;5.90;99.90
46676;DHT22;32412;51.478;5.694;2024-02-26T02:14:10;6.00;99.90
46676;DHT22;32412;51.478;5.694;2024-02-26T02:16:35;5.90;99.90
46676;DHT22;32412;51.478;5.694;2024-02-26T02:19:01;5.90;99.90
46676;DHT22;32412;51.478;5.694;2024-02-26T02:21:27;5.90;99.90
46676;DHT22;32412;51.478;5.694;2024-02-26T02:23:52;5.90;99.90
46676;DHT22;32412;51.478;5.694;2024-02-26T02:26:18;5.80;99.90
46676;DHT22;32412;51.478;5.694;2024-02-26T02:28:45;5.80;99.90
46676;DHT22;32412;51.478;5.694;2024-02-26T02:31:11;5.80;99.90
46676;DHT22;32412;51.478;5.694;2024-02-26T02:33:37;5.70;99.90
46676;DHT22;32412;51.478;5.694;2024-02-26T02:36:04;5.80;99.90
46676;DHT22;32412;51.478;5.694;2024-02-26T02:38:29;5.70;99.90
46676;DHT22;32412;51.478;5.694;2024-02-26T02:40:57;5.70;99.90
46676;DHT22;32412;51.478;5.694;2024-02-26T02:43:22;5.70;99.90
46676;DHT22;32412;51.478;5.694;2024-02-26T02:45:48;5.70;99.90
46676;DHT22;32412;51.478;5.694;2024-02-26T02:48:14;5.60;99.90
46676;DHT22;32412;51.478;5.694;2024-02-26T02:50:40;5.70;99.90
46676;DHT22;32412;51.478;5.694;2024-02-26T02:53:06;5.60;99.90
46676;DHT22;32412;51.478;5.694;2024-02-26T02:55:31;5.60;99.90
46676;DHT22;32412;51.478;5.694;2024-02-26T02:57:57;5.60;99.90
46676;DHT22;32412;51.478;5.694;2024-02-26T03:00:22;5.50;99.90
46676;DHT22;32412;51.478;5.694;2024-02-26T03:02:49;5.50;99.90
46676;DHT22;32412;51.478;5.694;2024-02-26T03:05:15;5.60;99.90
46676;DHT22;32412;51.478;5.694;2024-02-26T03:07:40;5.50;99.90
46676;DHT22;32412;51.478;5.694;2024-02-26T03:10:06;5.50;99.90
46676;DHT22;32412;51.478;5.694;2024-02-26T03:12:33;5.50;99.90
46676;DHT22;32412;51.478;5.694;2024-02-26T03:14:59;5.50;99.90
46676;DHT22;32412;51.478;5.694;2024-02-26T03:17:28;5.50;99.90
46676;DHT22;32412;51.478;5.694;2024-02-26T03:19:54;5.40;99.90
46676;DHT22;32412;51.478;5.694;2024-02-26T03:22:20;5.40;99.90
46676;DHT22;32412;51.478;5.694;2024-02-26T03:24:46;5.40;99.90
46676;DHT22;32412;51.478;5.694;2024-02-26T03:27:12;5.40;99.90
46676;DHT22;32412;51.478;5.694;2024-02-26T03:29:38;5.50;99.90
46676;DHT22;32412;51.478;5.694;2024-02-26T03:32:04;5.50;99.90
46676;DHT22;32412;51.478;5.694;2024-02-26T03:34:31;5.30;99.90
46676;DHT22;32412;51.478;5.694;2024-02-26T03:36:57;5.40;99.90
46676;DHT22;32412;51.478;5.694;2024-02-26T03:39:22;5.40;99.90
46676;DHT22;32412;51.478;5.694;2024-02-26T03:41:48;5.30;99.90
46676;DHT22;32412;51.478;5.694;2024-02-26T03:44:14;5.40;99.90
46676;DHT22;32412;51.478;5.694;2024-02-26T03:46:40;5.40;99.90
46676;DHT22;32412;51.478;5.694;2024-02-26T03:49:08;5.30;99.90
46676;DHT22;32412;51.478;5.694;2024-02-26T03:51:34;5.40;99.90
46676;DHT22;32412;51.478;5.694;2024-02-26T03:54:00;5.30;99.90
46676;DHT22;32412;51.478;5.694;2024-02-26T03:56:26;5.30;99.90
46676;DHT22;32412;51.478;5.694;2024-02-26T03:58:53;5.30;99.90
46676;DHT22;32412;51.478;5.694;2024-02-26T04:01:18;5.30;99.90
46676;DHT22;32412;51.478;5.694;2024-02-26T04:03:44;5.30;99.90
46676;DHT22;32412;51.478;5.694;2024-02-26T04:06:10;5.20;99.90
46676;DHT22;32412;51.478;5.694;2024-02-26T04:08:37;5.30;99.90
46676;DHT22;32412;51.478;5.694;2024-02-26T04:11:03;5.30;99.90
46676;DHT22;32412;51.478;5.694;2024-02-26T04:13:33;5.30;99.90
46676;DHT22;32412;51.478;5.694;2024-02-26T04:15:59;5.30;99.90
46676;DHT22;32412;51.478;5.694;2024-02-26T04:18:27;5.30;99.90
46676;DHT22;32412;51.478;5.694;2024-02-26T04:20:52;5.30;99.90
46676;DHT22;32412;51.478;5.694;2024-02-26T04:23:18;5.20;99.90
46676;DHT22;32412;51.478;5.694;2024-02-26T04:25:44;5.30;99.90
46676;DHT22;32412;51.478;5.694;2024-02-26T04:28:10;5.30;99.90
46676;DHT22;32412;51.478;5.694;2024-02-26T04:30:36;5.20;99.90
46676;DHT22;32412;51.478;5.694;2024-02-26T04:33:03;5.20;99.90
46676;DHT22;32412;51.478;5.694;2024-02-26T04:35:29;5.20;99.90
46676;DHT22;32412;51.478;5.694;2024-02-26T04:37:55;5.20;99.90
46676;DHT22;32412;51.478;5.694;2024-02-26T04:40:20;5.20;99.90
46676;DHT22;32412;51.478;5.694;2024-02-26T04:42:46;5.20;99.90
46676;DHT22;32412;51.478;5.694;2024-02-26T04:45:11;5.20;99.90
46676;DHT22;32412;51.478;5.694;2024-02-26T04:47:37;5.20;99.90
46676;DHT22;32412;51.478;5.694;2024-02-26T04:50:03;5.20;99.90
46676;DHT22;32412;51.478;5.694;2024-02-26T04:52:29;5.20;99.90
46676;DHT22;32412;51.478;5.694;2024-02-26T04:54:55;5.20;99.90
46676;DHT22;32412;51.478;5.694;2024-02-26T04:57:21;5.20;99.90
46676;DHT22;32412;51.478;5.694;2024-02-26T04:59:47;5.20;99.90
46676;DHT22;32412;51.478;5.694;2024-02-26T05:02:13;5.20;99.90
46676;DHT22;32412;51.478;5.694;2024-02-26T05:04:39;5.20;99.90
46676;DHT22;32412;51.478;5.694;2024-02-26T05:07:05;5.20;99.90
46676;DHT22;32412;51.478;5.694;2024-02-26T05:09:32;5.20;99.90
46676;DHT22;32412;51.478;5.694;2024-02-26T05:11:57;5.20;99.90
46676;DHT22;32412;51.478;5.694;2024-02-26T05:14:23;5.20;99.90
46676;DHT22;32412;51.478;5.694;2024-02-26T05:16:49;5.10;99.90
46676;DHT22;32412;51.478;5.694;2024-02-26T05:19:14;5.20;99.90
46676;DHT22;32412;51.478;5.694;2024-02-26T05:21:40;5.10;99.90
46676;DHT22;32412;51.478;5.694;2024-02-26T05:24:08;5.10;99.90
46676;DHT22;32412;51.478;5.694;2024-02-26T05:26:33;5.20;99.90
46676;DHT22;32412;51.478;5.694;2024-02-26T05:28:59;5.20;99.90
46676;DHT22;32412;51.478;5.694;2024-02-26T05:31:25;5.20;99.90
46676;DHT22;32412;51.478;5.694;2024-02-26T05:33:51;5.20;99.90
46676;DHT22;32412;51.478;5.694;2024-02-26T05:36:20;5.20;99.90
46676;DHT22;32412;51.478;5.694;2024-02-26T05:38:48;5.20;99.90
46676;DHT22;32412;51.478;5.694;2024-02-26T05:41:17;5.20;99.90
46676;DHT22;32412;51.478;5.694;2024-02-26T05:43:52;5.20;99.90
46676;DHT22;32412;51.478;5.694;2024-02-26T05:46:19;5.20;99.90
46676;DHT22;32412;51.478;5.694;2024-02-26T05:48:50;5.20;99.90
46676;DHT22;32412;51.478;5.694;2024-02-26T05:51:16;5.20;99.90
46676;DHT22;32412;51.478;5.694;2024-02-26T05:53:41;5.20;99.90
46676;DHT22;32412;51.478;5.694;2024-02-26T05:56:07;5.20;99.90
46676;DHT22;32412;51.478;5.694;2024-02-26T05:58:33;5.20;99.90
46676;DHT22;32412;51.478;5.694;2024-02-26T06:00:59;5.20;99.90
46676;DHT22;32412;51.478;5.694;2024-02-26T06:03:26;5.20;99.90
46676;DHT22;32412;51.478;5.694;2024-02-26T06:05:51;5.20;99.90
46676;DHT22;32412;51.478;5.694;2024-02-26T06:08:17;5.20;99.90
46676;DHT22;32412;51.478;5.694;2024-02-26T06:10:43;5.20;99.90
46676;DHT22;32412;51.478;5.694;2024-02-26T06:13:09;5.20;99.90
46676;DHT22;32412;51.478;5.694;2024-02-26T06:15:34;5.20;99.90
46676;DHT22;32412;51.478;5.694;2024-02-26T06:18:00;5.20;99.90
46676;DHT22;32412;51.478;5.694;2024-02-26T06:20:26;5.20;99.90
46676;DHT22;32412;51.478;5.694;2024-02-26T06:22:52;5.20;99.90
46676;DHT22;32412;51.478;5.694;2024-02-26T06:25:18;5.20;99.90
46676;DHT22;32412;51.478;5.694;2024-02-26T06:27:44;5.20;99.90
46676;DHT22;32412;51.478;5.694;2024-02-26T06:30:12;5.20;99.90
46676;DHT22;32412;51.478;5.694;2024-02-26T06:32:38;5.10;99.90
46676;DHT22;32412;51.478;5.694;2024-02-26T06:35:05;5.20;99.90
46676;DHT22;32412;51.478;5.694;2024-02-26T06:37:36;5.10;99.90
46676;DHT22;32412;51.478;5.694;2024-02-26T06:40:03;5.10;99.90
46676;DHT22;32412;51.478;5.694;2024-02-26T06:42:32;5.10;99.90
46676;DHT22;32412;51.478;5.694;2024-02-26T06:50:54;5.10;99.90
46676;DHT22;32412;51.478;5.694;2024-02-26T06:53:19;5.10;99.90
46676;DHT22;32412;51.478;5.694;2024-02-26T06:55:45;5.00;99.90
46676;DHT22;32412;51.478;5.694;2024-02-26T06:58:11;5.00;99.90
46676;DHT22;32412;51.478;5.694;2024-02-26T07:00:36;5.00;99.90
46676;DHT22;32412;51.478;5.694;2024-02-26T07:03:02;5.00;99.90
46676;DHT22;32412;51.478;5.694;2024-02-26T07:05:28;5.00;99.90
46676;DHT22;32412;51.478;5.694;2024-02-26T07:07:54;5.00;99.90
46676;DHT22;32412;51.478;5.694;2024-02-26T07:16:45;5.00;99.90
46676;DHT22;32412;51.478;5.694;2024-02-26T07:19:11;5.00;99.90
46676;DHT22;32412;51.478;5.694;2024-02-26T07:21:36;5.00;99.90
46676;DHT22;32412;51.478;5.694;2024-02-26T07:24:02;5.00;99.90
46676;DHT22;32412;51.478;5.694;2024-02-26T07:26:28;5.00;99.90
46676;DHT22;32412;51.478;5.694;2024-02-26T07:28:56;4.90;99.90
46676;DHT22;32412;51.478;5.694;2024-02-26T07:31:21;5.00;99.90
46676;DHT22;32412;51.478;5.694;2024-02-26T07:33:47;5.00;99.90
46676;DHT22;32412;51.478;5.694;2024-02-26T07:36:13;5.00;99.90
46676;DHT22;32412;51.478;5.694;2024-02-26T07:38:39;5.00;99.90
46676;DHT22;32412;51.478;5.694;2024-02-26T07:41:04;5.00;99.90
46676;DHT22;32412;51.478;5.694;2024-02-26T07:43:30;5.00;99.90
46676;DHT22;32412;51.478;5.694;2024-02-26T07:45:57;5.00;99.90
46676;DHT22;32412;51.478;5.694;2024-02-26T07:48:22;5.00;99.90
46676;DHT22;32412;51.478;5.694;2024-02-26T07:50:48;5.00;99.90
46676;DHT22;32412;51.478;5.694;2024-02-26T07:53:14;5.10;99.90
46676;DHT22;32412;51.478;5.694;2024-02-26T07:55:39;5.00;99.90
46676;DHT22;32412;51.478;5.694;2024-02-26T07:58:05;5.00;99.90
46676;DHT22;32412;51.478;5.694;2024-02-26T08:00:34;5.10;99.90
46676;DHT22;32412;51.478;5.694;2024-02-26T08:03:00;5.00;99.90
46676;DHT22;32412;51.478;5.694;2024-02-26T08:08:48;5.10;99.90
46676;DHT22;32412;51.478;5.694;2024-02-26T08:11:17;5.00;99.90
46676;DHT22;32412;51.478;5.694;2024-02-26T08:13:42;5.10;99.90
46676;DHT22;32412;51.478;5.694;2024-02-26T08:16:11;5.10;99.90
46676;DHT22;32412;51.478;5.694;2024-02-26T08:18:38;5.20;99.90
46676;DHT22;32412;51.478;5.694;2024-02-26T08:21:04;5.20;99.90
46676;DHT22;32412;51.478;5.694;2024-02-26T08:23:29;5.20;99.90
46676;DHT22;32412;51.478;5.694;2024-02-26T08:50:04;5.10;99.90
46676;DHT22;32412;51.478;5.694;2024-02-26T08:52:29;5.10;99.90
46676;DHT22;32412;51.478;5.694;2024-02-26T08:54:55;5.10;99.90
46676;DHT22;32412;51.478;5.694;2024-02-26T08:57:21;5.10;99.90
46676;DHT22;32412;51.478;5.694;2024-02-26T08:59:47;5.20;99.90
46676;DHT22;32412;51.478;5.694;2024-02-26T09:02:12;5.10;99.90
46676;DHT22;32412;51.478;5.694;2024-02-26T09:04:38;5.10;99.90
46676;DHT22;32412;51.478;5.694;2024-02-26T09:07:04;5.10;99.90
46676;DHT22;32412;51.478;5.694;2024-02-26T09:09:30;5.10;99.90
46676;DHT22;32412;51.478;5.694;2024-02-26T09:11:56;5.10;99.90
46676;DHT22;32412;51.478;5.694;2024-02-26T09:14:24;5.10;99.90
46676;DHT22;32412;51.478;5.694;2024-02-26T09:20:16;5.10;99.90
46676;DHT22;32412;51.478;5.694;2024-02-26T09:22:46;5.00;99.90
46676;DHT22;32412;51.478;5.694;2024-02-26T09:25:12;5.10;99.90
46676;DHT22;32412;51.478;5.694;2024-02-26T09:27:38;5.10;99.90
46676;DHT22;32412;51.478;5.694;2024-02-26T09:30:04;5.20;99.90
46676;DHT22;32412;51.478;5.694;2024-02-26T09:32:30;5.10;99.90
46676;DHT22;32412;51.478;5.694;2024-02-26T09:34:56;5.20;99.90
46676;DHT22;32412;51.478;5.694;2024-02-26T09:37:22;5.10;99.90
46676;DHT22;32412;51.478;5.694;2024-02-26T09:39:48;5.10;99.90
46676;DHT22;32412;51.478;5.694;2024-02-26T09:42:13;5.10;99.90
46676;DHT22;32412;51.478;5.694;2024-02-26T09:44:40;5.10;99.90
46676;DHT22;32412;51.478;5.694;2024-02-26T09:47:11;5.10;99.90
46676;DHT22;32412;51.478;5.694;2024-02-26T09:49:37;5.10;99.90
46676;DHT22;32412;51.478;5.694;2024-02-26T09:52:04;5.10;99.90
46676;DHT22;32412;51.478;5.694;2024-02-26T09:54:31;5.20;99.90
46676;DHT22;32412;51.478;5.694;2024-02-26T09:57:01;5.20;99.90
46676;DHT22;32412;51.478;5.694;2024-02-26T09:59:29;5.20;99.90
46676;DHT22;32412;51.478;5.694;2024-02-26T10:02:00;5.20;99.90
46676;DHT22;32412;51.478;5.694;2024-02-26T10:04:27;5.20;99.90
46676;DHT22;32412;51.478;5.694;2024-02-26T10:06:53;5.20;99.90
46676;DHT22;32412;51.478;5.694;2024-02-26T10:09:19;5.20;99.90
46676;DHT22;32412;51.478;5.694;2024-02-26T10:11:47;5.20;99.90
46676;DHT22;32412;51.478;5.694;2024-02-26T10:14:15;5.30;99.90
46676;DHT22;32412;51.478;5.694;2024-02-26T10:16:41;5.20;99.90
46676;DHT22;32412;51.478;5.694;2024-02-26T10:19:07;5.30;99.90
46676;DHT22;32412;51.478;5.694;2024-02-26T10:21:33;5.30;99.90
46676;DHT22;32412;51.478;5.694;2024-02-26T10:23:58;5.20;99.90
46676;DHT22;32412;51.478;5.694;2024-02-26T10:26:24;5.30;99.90
46676;DHT22;32412;51.478;5.694;2024-02-26T10:28:50;5.30;99.90
46676;DHT22;32412;51.478;5.694;2024-02-26T10:31:16;5.30;99.90
46676;DHT22;32412;51.478;5.694;2024-02-26T10:33:43;5.30;99.90
46676;DHT22;32412;51.478;5.694;2024-02-26T10:36:09;5.30;99.90
46676;DHT22;32412;51.478;5.694;2024-02-26T10:38:36;5.30;99.90
46676;DHT22;32412;51.478;5.694;2024-02-26T10:41:06;5.30;99.90
46676;DHT22;32412;51.478;5.694;2024-02-26T10:43:32;5.30;99.90
46676;DHT22;32412;51.478;5.694;2024-02-26T10:45:58;5.20;99.90
46676;DHT22;32412;51.478;5.694;2024-02-26T10:48:24;5.30;99.90
46676;DHT22;32412;51.478;5.694;2024-02-26T10:50:50;5.30;99.90
46676;DHT22;32412;51.478;5.694;2024-02-26T10:53:23;5.30;99.90
46676;DHT22;32412;51.478;5.694;2024-02-26T10:55:57;5.30;99.90
46676;DHT22;32412;51.478;5.694;2024-02-26T10:58:24;5.30;99.90
46676;DHT22;32412;51.478;5.694;2024-02-26T11:00:51;5.40;99.90
46676;DHT22;32412;51.478;5.694;2024-02-26T11:03:18;5.30;99.90
46676;DHT22;32412;51.478;5.694;2024-02-26T11:05:48;5.40;99.90
46676;DHT22;32412;51.478;5.694;2024-02-26T11:08:14;5.30;99.90
46676;DHT22;32412;51.478;5.694;2024-02-26T11:10:41;5.40;99.90
46676;DHT22;32412;51.478;5.694;2024-02-26T11:13:10;5.40;99.90
46676;DHT22;32412;51.478;5.694;2024-02-26T11:15:38;5.40;99.90
46676;DHT22;32412;51.478;5.694;2024-02-26T11:18:05;5.30;99.90
46676;DHT22;32412;51.478;5.694;2024-02-26T11:20:32;5.40;99.90
46676;DHT22;32412;51.478;5.694;2024-02-26T11:22:59;5.40;99.90
46676;DHT22;32412;51.478;5.694;2024-02-26T11:25:24;5.40;99.90
46676;DHT22;32412;51.478;5.694;2024-02-26T11:27:58;5.40;99.90
46676;DHT22;32412;51.478;5.694;2024-02-26T11:30:25;5.40;99.90
46676;DHT22;32412;51.478;5.694;2024-02-26T11:32:52;5.40;99.90
46676;DHT22;32412;51.478;5.694;2024-02-26T11:35:19;5.40;99.90
46676;DHT22;32412;51.478;5.694;2024-02-26T11:37:55;5.40;99.90
46676;DHT22;32412;51.478;5.694;2024-02-26T11:40:25;5.40;99.90
46676;DHT22;32412;51.478;5.694;2024-02-26T11:42:54;5.40;99.90
46676;DHT22;32412;51.478;5.694;2024-02-26T11:48:20;5.40;99.90
46676;DHT22;32412;51.478;5.694;2024-02-26T11:50:51;5.50;99.90
46676;DHT22;32412;51.478;5.694;2024-02-26T11:53:26;5.50;99.90
46676;DHT22;32412;51.478;5.694;2024-02-26T11:58:44;5.40;99.90
46676;DHT22;32412;51.478;5.694;2024-02-26T12:01:38;5.50;99.90
46676;DHT22;32412;51.478;5.694;2024-02-26T12:04:05;5.50;99.90
46676;DHT22;32412;51.478;5.694;2024-02-26T12:06:41;5.50;99.90
46676;DHT22;32412;51.478;5.694;2024-02-26T12:09:07;5.50;99.90
46676;DHT22;32412;51.478;5.694;2024-02-26T12:11:37;5.50;99.90
46676;DHT22;32412;51.478;5.694;2024-02-26T12:14:05;5.60;99.90
46676;DHT22;32412;51.478;5.694;2024-02-26T12:16:40;5.50;99.90
46676;DHT22;32412;51.478;5.694;2024-02-26T12:19:09;5.50;99.90
46676;DHT22;32412;51.478;5.694;2024-02-26T12:21:36;5.50;99.90
46676;DHT22;32412;51.478;5.694;2024-02-26T12:24:14;5.50;99.90
46676;DHT22;32412;51.478;5.694;2024-02-26T12:26:41;5.50;99.90
46676;DHT22;32412;51.478;5.694;2024-02-26T12:29:07;5.50;99.90
46676;DHT22;32412;51.478;5.694;2024-02-26T12:31:33;5.50;99.90
46676;DHT22;32412;51.478;5.694;2024-02-26T12:34:03;5.50;99.90
46676;DHT22;32412;51.478;5.694;2024-02-26T12:36:29;5.50;99.90
46676;DHT22;32412;51.478;5.694;2024-02-26T12:38:56;5.50;99.90
46676;DHT22;32412;51.478;5.694;2024-02-26T12:41:24;5.60;99.90
46676;DHT22;32412;51.478;5.694;2024-02-26T12:43:50;5.60;99.90
46676;DHT22;32412;51.478;5.694;2024-02-26T12:46:16;5.60;99.90
46676;DHT22;32412;51.478;5.694;2024-02-26T12:48:46;5.60;99.90
46676;DHT22;32412;51.478;5.694;2024-02-26T12:51:16;5.70;99.90
46676;DHT22;32412;51.478;5.694;2024-02-26T12:53:44;5.70;99.90
46676;DHT22;32412;51.478;5.694;2024-02-26T12:56:11;5.70;99.90
46676;DHT22;32412;51.478;5.694;2024-02-26T12:58:40;5.70;99.90
46676;DHT22;32412;51.478;5.694;2024-02-26T13:01:06;5.70;99.90
46676;DHT22;32412;51.478;5.694;2024-02-26T13:03:34;5.70;99.90
46676;DHT22;32412;51.478;5.694;2024-02-26T13:06:02;5.80;99.90
46676;DHT22;32412;51.478;5.694;2024-02-26T13:08:28;5.70;99.90
46676;DHT22;32412;51.478;5.694;2024-02-26T13:10:54;5.70;99.90
46676;DHT22;32412;51.478;5.694;2024-02-26T13:13:19;5.70;99.90
46676;DHT22;32412;51.478;5.694;2024-02-26T13:15:45;5.80;99.90
46676;DHT22;32412;51.478;5.694;2024-02-26T13:18:12;5.70;99.90
46676;DHT22;32412;51.478;5.694;2024-02-26T13:20:38;5.70;99.90
46676;DHT22;32412;51.478;5.694;2024-02-26T13:23:12;5.60;99.90
46676;DHT22;32412;51.478;5.694;2024-02-26T13:25:38;5.70;99.90
46676;DHT22;32412;51.478;5.694;2024-02-26T13:28:17;5.70;99.90
46676;DHT22;32412;51.478;5.694;2024-02-26T13:30:56;5.60;99.90
46676;DHT22;32412;51.478;5.694;2024-02-26T13:33:23;5.70;99.90
46676;DHT22;32412;51.478;5.694;2024-02-26T13:35:50;5.60;99.90
46676;DHT22;32412;51.478;5.694;2024-02-26T13:38:15;5.70;99.90
46676;DHT22;32412;51.478;5.694;2024-02-26T13:40:41;5.70;99.90
46676;DHT22;32412;51.478;5.694;2024-02-26T13:43:07;5.70;99.90
46676;DHT22;32412;51.478;5.694;2024-02-26T13:45:37;5.70;99.90
46676;DHT22;32412;51.478;5.694;2024-02-26T13:48:05;5.60;99.90
46676;DHT22;32412;51.478;5.694;2024-02-26T13:50:31;5.70;99.90
46676;DHT22;32412;51.478;5.694;2024-02-26T13:52:56;5.60;99.90
46676;DHT22;32412;51.478;5.694;2024-02-26T13:55:25;5.60;99.90
46676;DHT22;32412;51.478;5.694;2024-02-26T13:57:52;5.60;99.90
46676;DHT22;32412;51.478;5.694;2024-02-26T14:00:19;5.50;99.90
46676;DHT22;32412;51.478;5.694;2024-02-26T14:02:45;5.60;99.90
46676;DHT22;32412;51.478;5.694;2024-02-26T14:05:11;5.60;99.90
46676;DHT22;32412;51.478;5.694;2024-02-26T14:07:37;5.60;99.90
46676;DHT22;32412;51.478;5.694;2024-02-26T14:10:03;5.60;99.90
46676;DHT22;32412;51.478;5.694;2024-02-26T14:12:28;5.60;99.90
46676;DHT22;32412;51.478;5.694;2024-02-26T14:14:54;5.60;99.90
46676;DHT22;32412;51.478;5.694;2024-02-26T14:17:21;5.60;99.90
46676;DHT22;32412;51.478;5.694;2024-02-26T14:19:48;5.60;99.90
46676;DHT22;32412;51.478;5.694;2024-02-26T14:22:14;5.60;99.90
46676;DHT22;32412;51.478;5.694;2024-02-26T14:24:41;5.60;99.90
46676;DHT22;32412;51.478;5.694;2024-02-26T14:27:10;5.60;99.90
46676;DHT22;32412;51.478;5.694;2024-02-26T14:29:39;5.60;99.90
46676;DHT22;32412;51.478;5.694;2024-02-26T14:32:07;5.60;99.90
46676;DHT22;32412;51.478;5.694;2024-02-26T14:34:33;5.60;99.90
46676;DHT22;32412;51.478;5.694;2024-02-26T14:36:58;5.60;99.90
46676;DHT22;32412;51.478;5.694;2024-02-26T14:39:24;5.70;99.90
46676;DHT22;32412;51.478;5.694;2024-02-26T14:41:50;5.70;99.90
46676;DHT22;32412;51.478;5.694;2024-02-26T14:44:15;5.70;99.90
46676;DHT22;32412;51.478;5.694;2024-02-26T14:46:41;5.70;99.90
46676;DHT22;32412;51.478;5.694;2024-02-26T14:49:07;5.70;99.90
46676;DHT22;32412;51.478;5.694;2024-02-26T14:51:33;5.70;99.90
46676;DHT22;32412;51.478;5.694;2024-02-26T14:54:00;5.80;99.90
46676;DHT22;32412;51.478;5.694;2024-02-26T14:56:27;5.70;99.90
46676;DHT22;32412;51.478;5.694;2024-02-26T14:58:53;5.70;99.90
46676;DHT22;32412;51.478;5.694;2024-02-26T15:01:18;5.70;99.90
46676;DHT22;32412;51.478;5.694;2024-02-26T15:03:44;5.80;99.90
46676;DHT22;32412;51.478;5.694;2024-02-26T15:06:10;5.70;99.90
46676;DHT22;32412;51.478;5.694;2024-02-26T15:08:35;5.80;99.90
46676;DHT22;32412;51.478;5.694;2024-02-26T15:11:01;5.80;99.90
46676;DHT22;32412;51.478;5.694;2024-02-26T15:13:27;5.80;99.90
46676;DHT22;32412;51.478;5.694;2024-02-26T15:15:53;5.80;99.90
46676;DHT22;32412;51.478;5.694;2024-02-26T15:18:18;5.80;99.90
46676;DHT22;32412;51.478;5.694;2024-02-26T15:20:44;5.80;99.90
46676;DHT22;32412;51.478;5.694;2024-02-26T15:23:11;5.80;99.90
46676;DHT22;32412;51.478;5.694;2024-02-26T15:25:37;5.80;99.90
46676;DHT22;32412;51.478;5.694;2024-02-26T15:28:03;5.80;99.90
46676;DHT22;32412;51.478;5.694;2024-02-26T15:30:29;5.80;99.90
46676;DHT22;32412;51.478;5.694;2024-02-26T15:32:55;5.80;99.90
46676;DHT22;32412;51.478;5.694;2024-02-26T15:35:21;5.80;99.90
46676;DHT22;32412;51.478;5.694;2024-02-26T15:37:47;5.90;99.90
46676;DHT22;32412;51.478;5.694;2024-02-26T15:40:13;5.80;99.90
46676;DHT22;32412;51.478;5.694;2024-02-26T15:42:38;5.80;99.90
46676;DHT22;32412;51.478;5.694;2024-02-26T15:45:05;5.90;99.90
46676;DHT22;32412;51.478;5.694;2024-02-26T15:47:30;5.80;99.90
46676;DHT22;32412;51.478;5.694;2024-02-26T15:49:56;5.80;99.90
46676;DHT22;32412;51.478;5.694;2024-02-26T15:52:23;5.80;99.90
46676;DHT22;32412;51.478;5.694;2024-02-26T15:54:48;5.80;99.90
46676;DHT22;32412;51.478;5.694;2024-02-26T15:57:14;5.80;99.90
46676;DHT22;32412;51.478;5.694;2024-02-26T15:59:41;5.80;99.90
46676;DHT22;32412;51.478;5.694;2024-02-26T16:02:07;5.80;99.90
46676;DHT22;32412;51.478;5.694;2024-02-26T16:04:33;5.80;99.90
46676;DHT22;32412;51.478;5.694;2024-02-26T16:07:03;5.70;99.90
46676;DHT22;32412;51.478;5.694;2024-02-26T16:09:32;5.70;99.90
46676;DHT22;32412;51.478;5.694;2024-02-26T16:12:00;5.80;99.90
46676;DHT22;32412;51.478;5.694;2024-02-26T16:14:47;5.70;99.90
46676;DHT22;32412;51.478;5.694;2024-02-26T16:20:03;5.70;99.90
46676;DHT22;32412;51.478;5.694;2024-02-26T16:22:34;5.70;99.90
46676;DHT22;32412;51.478;5.694;2024-02-26T16:25:02;5.70;99.90
46676;DHT22;32412;51.478;5.694;2024-02-26T16:27:29;5.70;99.90
46676;DHT22;32412;51.478;5.694;2024-02-26T16:29:55;5.70;99.90
46676;DHT22;32412;51.478;5.694;2024-02-26T16:32:21;5.60;99.90
46676;DHT22;32412;51.478;5.694;2024-02-26T16:34:47;5.60;99.90